createdAt,value
2022-08-22T00:00:00.007Z,4.57
2022-08-22T00:02:48.332Z,3.20
2022-08-22T00:02:58.874Z,4.18
2022-08-22T00:03:09.502Z,3.97
2022-08-22T00:05:22.744Z,5.32
2022-08-22T00:10:31.461Z,5.03
2022-08-22T00:16:00.855Z,5.10
2022-08-22T00:21:22.019Z,5.38
2022-08-22T00:26:57.534Z,5.70
2022-08-22T00:32:23.786Z,4.97
2022-08-22T00:37:43.403Z,4.95
2022-08-22T00:42:53.802Z,5.40
2022-08-22T00:47:55.480Z,5.43
2022-08-22T00:53:11.196Z,5.32
2022-08-22T00:58:37.294Z,5.30
2022-08-22T01:03:46.647Z,5.10
2022-08-22T01:09:10.021Z,4.78
2022-08-22T01:14:11.650Z,5.00
2022-08-22T01:19:25.395Z,5.60
2022-08-22T01:25:18.349Z,5.45
2022-08-22T01:31:13.110Z,5.18
2022-08-22T01:36:36.865Z,5.70
2022-08-22T01:41:46.931Z,5.45
2022-08-22T01:47:23.191Z,4.97
2022-08-22T01:53:05.534Z,5.43
2022-08-22T01:58:42.912Z,5.28
2022-08-22T02:04:01.060Z,6.10
2022-08-22T02:09:39.368Z,6.45
2022-08-22T02:14:52.458Z,6.45
2022-08-22T02:20:01.486Z,6.15
2022-08-22T02:25:23.482Z,6.32
2022-08-22T02:30:44.428Z,6.80
2022-08-22T02:35:59.106Z,6.82
2022-08-22T02:41:44.035Z,6.50
2022-08-22T02:47:14.929Z,6.35
2022-08-22T02:52:40.218Z,6.65
2022-08-22T02:58:13.920Z,7.05
2022-08-22T03:03:25.815Z,6.68
2022-08-22T03:08:47.398Z,7.38
2022-08-22T03:14:14.572Z,6.45
2022-08-22T03:19:19.386Z,7.43
2022-08-22T03:24:25.517Z,9.25
2022-08-22T03:29:38.412Z,8.57
2022-08-22T03:34:59.508Z,7.72
2022-08-22T03:40:21.652Z,7.90
2022-08-22T03:45:44.660Z,7.97
2022-08-22T03:50:58.242Z,6.75
2022-08-22T03:56:37.216Z,7.28
2022-08-22T04:01:47.841Z,7.18
2022-08-22T04:07:32.148Z,7.55
2022-08-22T04:12:58.947Z,6.68
2022-08-22T04:18:19.589Z,6.63
2022-08-22T04:23:28.001Z,7.60
2022-08-22T04:28:39.711Z,7.15
2022-08-22T04:34:02.483Z,7.07
2022-08-22T04:39:19.213Z,7.47
2022-08-22T04:44:41.145Z,7.18
2022-08-22T04:49:51.816Z,7.13
2022-08-22T04:55:21.441Z,7.63
2022-08-22T05:00:23.637Z,7.38
2022-08-22T05:05:34.999Z,7.63
2022-08-22T05:10:41.816Z,7.15
2022-08-22T05:15:48.338Z,8.25
2022-08-22T05:20:52.698Z,7.72
2022-08-22T05:26:00.438Z,8.40
2022-08-22T05:31:13.671Z,8.80
2022-08-22T05:36:28.670Z,8.07
2022-08-22T05:41:38.073Z,8.02
2022-08-22T05:46:43.894Z,7.65
2022-08-22T05:51:49.151Z,8.57
2022-08-22T05:57:07.805Z,8.70
2022-08-22T06:02:20.941Z,8.10
2022-08-22T06:07:33.644Z,8.23
2022-08-22T06:12:54.199Z,8.75
2022-08-22T06:18:01.772Z,9.45
2022-08-22T06:23:06.756Z,9.05
2022-08-22T06:28:13.704Z,9.10
2022-08-22T06:33:21.588Z,8.02
2022-08-22T06:38:29.441Z,10.07
2022-08-22T06:43:43.793Z,8.48
2022-08-22T06:48:46.348Z,7.93
2022-08-22T06:53:53.597Z,7.60
2022-08-22T06:58:59.273Z,7.88
2022-08-22T07:04:08.787Z,9.55
2022-08-22T07:09:29.258Z,8.90
2022-08-22T07:14:42.955Z,8.60
2022-08-22T07:20:00.174Z,9.00
2022-08-22T07:25:11.276Z,8.40
2022-08-22T07:30:28.018Z,8.68
2022-08-22T07:35:41.938Z,8.88
2022-08-22T07:41:26.703Z,9.05
2022-08-22T07:46:31.445Z,9.02
2022-08-22T07:51:47.074Z,7.85
2022-08-22T07:56:59.594Z,7.32
2022-08-22T08:02:05.820Z,7.88
2022-08-22T08:07:10.670Z,7.68
2022-08-22T08:12:14.120Z,7.50
2022-08-22T08:17:32.344Z,6.85
2022-08-22T08:22:35.208Z,6.47
2022-08-22T08:27:56.828Z,6.20
2022-08-22T08:33:24.713Z,4.82
2022-08-22T08:38:29.125Z,5.50
2022-08-22T08:43:40.916Z,4.45
2022-08-22T08:49:01.073Z,4.28
2022-08-22T08:54:43.273Z,4.25
2022-08-22T09:00:07.479Z,4.20
2022-08-22T09:05:43.255Z,3.10
2022-08-22T09:10:58.331Z,3.10
2022-08-22T09:16:14.007Z,3.15
2022-08-22T09:21:41.355Z,3.40
2022-08-22T09:27:03.805Z,2.13
2022-08-22T09:32:33.684Z,2.15
2022-08-22T09:37:52.190Z,1.98
2022-08-22T09:43:11.459Z,2.20
2022-08-22T09:48:44.533Z,1.70
2022-08-22T09:54:02.260Z,1.80
2022-08-22T09:59:12.785Z,2.30
2022-08-22T10:04:56.262Z,2.17
2022-08-22T10:10:46.578Z,1.85
2022-08-22T10:15:56.610Z,1.98
2022-08-22T10:21:26.624Z,2.00
2022-08-22T10:26:47.468Z,1.95
2022-08-22T10:31:59.504Z,2.05
2022-08-22T10:37:10.521Z,3.00
2022-08-22T10:42:35.538Z,2.00
2022-08-22T10:48:00.492Z,2.08
2022-08-22T10:53:35.043Z,2.08
2022-08-22T10:58:54.852Z,2.08
2022-08-22T11:04:05.352Z,1.80
2022-08-22T11:09:17.186Z,1.95
2022-08-22T11:14:37.915Z,2.20
2022-08-22T11:19:57.739Z,2.20
2022-08-22T11:25:29.236Z,2.47
2022-08-22T11:31:10.670Z,2.35
2022-08-22T11:36:37.390Z,1.90
2022-08-22T11:41:56.373Z,2.20
2022-08-22T11:47:01.709Z,2.47
2022-08-22T11:52:22.338Z,2.67
2022-08-22T11:57:44.251Z,2.33
2022-08-22T12:03:14.595Z,2.50
2022-08-22T12:08:46.359Z,2.42
2022-08-22T12:14:04.678Z,2.30
2022-08-22T12:19:08.207Z,1.92
2022-08-22T12:24:31.701Z,2.03
2022-08-22T12:29:52.341Z,2.20
2022-08-22T12:35:14.608Z,2.13
2022-08-22T12:40:19.173Z,2.00
2022-08-22T12:45:26.770Z,2.03
2022-08-22T12:50:37.643Z,2.40
2022-08-22T12:55:51.369Z,2.38
2022-08-22T13:01:01.164Z,2.60
2022-08-22T13:06:22.681Z,2.90
2022-08-22T13:11:25.780Z,2.33
2022-08-22T13:16:48.832Z,2.50
2022-08-22T13:22:08.896Z,2.40
2022-08-22T13:27:22.154Z,2.40
2022-08-22T13:32:34.081Z,2.50
2022-08-22T13:37:40.655Z,2.40
2022-08-22T13:42:48.081Z,2.47
2022-08-22T13:47:58.924Z,2.38
2022-08-22T13:53:12.010Z,2.40
2022-08-22T13:58:32.275Z,1.90
2022-08-22T14:03:48.830Z,2.50
2022-08-22T14:08:56.124Z,1.80
2022-08-22T14:14:02.207Z,2.08
2022-08-22T14:19:34.955Z,2.45
2022-08-22T14:25:00.753Z,2.20
2022-08-22T14:30:18.672Z,2.30
2022-08-22T14:35:35.071Z,2.30
2022-08-22T14:40:41.306Z,2.20
2022-08-22T14:45:53.862Z,2.10
2022-08-22T14:51:10.208Z,2.22
2022-08-22T14:56:23.837Z,2.40
2022-08-22T15:01:29.804Z,2.15
2022-08-22T15:06:48.187Z,2.60
2022-08-22T15:11:50.620Z,2.20
2022-08-22T15:16:58.457Z,2.20
2022-08-22T15:22:25.736Z,2.50
2022-08-22T15:27:32.017Z,2.83
2022-08-22T15:32:42.012Z,1.88
2022-08-22T15:38:36.528Z,2.20
2022-08-22T15:43:47.409Z,2.22
2022-08-22T15:49:01.010Z,2.47
2022-08-22T15:54:31.537Z,2.35
2022-08-22T16:00:01.317Z,2.55
2022-08-22T16:05:11.648Z,2.50
2022-08-22T16:10:39.890Z,2.58
2022-08-22T16:15:55.726Z,2.42
2022-08-22T16:20:58.224Z,2.90
2022-08-22T16:26:10.244Z,2.72
2022-08-22T16:31:28.834Z,2.60
2022-08-22T16:36:41.506Z,3.10
2022-08-22T16:41:44.226Z,2.60
2022-08-22T16:46:47.748Z,2.70
2022-08-22T16:52:24.656Z,2.97
2022-08-22T16:58:05.377Z,3.10
2022-08-22T17:03:45.494Z,2.58
2022-08-22T17:08:53.796Z,2.28
2022-08-22T17:14:27.317Z,2.38
2022-08-22T17:19:41.016Z,2.00
2022-08-22T17:25:03.065Z,2.22
2022-08-22T17:30:10.772Z,4.32
2022-08-22T17:35:55.179Z,2.10
2022-08-22T17:41:25.907Z,2.97
2022-08-22T17:46:38.807Z,2.00
2022-08-22T17:52:00.485Z,2.90
2022-08-22T17:57:14.500Z,2.20
2022-08-22T18:02:21.347Z,1.95
2022-08-22T18:07:50.635Z,2.42
2022-08-22T18:13:29.674Z,3.35
2022-08-22T18:18:37.366Z,3.03
2022-08-22T18:23:44.022Z,3.20
2022-08-22T18:29:07.773Z,3.05
2022-08-22T18:34:45.800Z,2.25
2022-08-22T18:39:55.081Z,2.13
2022-08-22T18:44:57.108Z,2.70
2022-08-22T18:50:02.105Z,2.30
2022-08-22T18:55:06.777Z,2.33
2022-08-22T19:00:19.456Z,2.65
2022-08-22T19:05:38.988Z,2.60
2022-08-22T19:10:55.647Z,3.00
2022-08-22T19:16:15.170Z,2.90
2022-08-22T19:21:43.589Z,3.10
2022-08-22T19:26:48.276Z,3.08
2022-08-22T19:31:51.738Z,3.25
2022-08-22T19:37:11.570Z,3.28
2022-08-22T19:42:36.639Z,3.22
2022-08-22T19:47:42.190Z,3.78
2022-08-22T19:52:54.462Z,3.33
2022-08-22T19:58:13.293Z,3.50
2022-08-22T20:03:40.118Z,3.75
2022-08-22T20:09:02.070Z,3.63
2022-08-22T20:14:25.001Z,3.97
2022-08-22T20:20:16.552Z,3.47
2022-08-22T20:25:33.318Z,3.53
2022-08-22T20:30:43.401Z,4.00
2022-08-22T20:35:54.380Z,3.65
2022-08-22T20:41:11.650Z,3.85
2022-08-22T20:46:17.655Z,4.63
2022-08-22T20:51:25.001Z,4.28
2022-08-22T20:56:35.552Z,4.25
2022-08-22T21:01:38.591Z,4.15
2022-08-22T21:06:40.372Z,4.43
2022-08-22T21:11:50.514Z,4.32
2022-08-22T21:16:53.311Z,3.80
2022-08-22T21:22:14.352Z,4.53
2022-08-22T21:27:39.503Z,4.13
2022-08-22T21:32:52.300Z,4.50
2022-08-22T21:37:59.151Z,4.13
2022-08-22T21:43:26.716Z,4.43
2022-08-22T21:48:37.813Z,4.20
2022-08-22T21:53:39.800Z,4.03
2022-08-22T21:58:42.580Z,4.60
2022-08-22T22:03:44.358Z,4.30
2022-08-22T22:08:46.442Z,4.80
2022-08-22T22:13:48.942Z,4.65
2022-08-22T22:18:50.633Z,5.03
2022-08-22T22:23:52.658Z,4.95
2022-08-22T22:28:54.645Z,4.72
2022-08-22T22:33:56.402Z,4.82
2022-08-22T22:38:58.567Z,4.95
2022-08-22T22:44:00.443Z,4.93
2022-08-22T22:49:02.178Z,4.68
2022-08-22T22:54:03.958Z,5.38
2022-08-22T22:59:12.735Z,4.90
2022-08-22T23:04:16.358Z,4.95
2022-08-22T23:09:18.099Z,5.55
2022-08-22T23:14:20.178Z,4.90
2022-08-22T23:19:21.869Z,4.90
2022-08-22T23:24:25.093Z,5.28
2022-08-22T23:29:26.933Z,5.35
2022-08-22T23:34:35.457Z,5.03
2022-08-22T23:39:38.419Z,5.18
2022-08-22T23:44:41.613Z,5.05
2022-08-22T23:49:43.848Z,4.88
2022-08-22T23:54:45.647Z,4.95
2022-08-22T23:59:57.826Z,4.68
